createdAt,value
2019-04-30T00:01:27.891Z,50.48
2019-04-30T00:03:59.384Z,54.83
2019-04-30T00:06:27.295Z,49.50
2019-04-30T00:08:58.011Z,54.10
2019-04-30T00:11:25.302Z,52.20
2019-04-30T00:13:55.377Z,56.02
2019-04-30T00:16:21.618Z,51.98
2019-04-30T00:18:58.143Z,53.55
2019-04-30T00:21:18.847Z,49.75
2019-04-30T00:23:46.294Z,54.10
2019-04-30T00:26:16.968Z,57.03
2019-04-30T00:28:46.348Z,52.75
2019-04-30T00:31:11.772Z,56.70
2019-04-30T00:33:39.081Z,52.55
2019-04-30T00:36:06.390Z,53.30
2019-04-30T00:38:37.707Z,51.35
2019-04-30T00:41:06.966Z,52.85
2019-04-30T00:43:31.720Z,51.68
2019-04-30T00:45:59.029Z,48.55
2019-04-30T00:48:29.644Z,48.02
2019-04-30T00:50:55.825Z,50.58
2019-04-30T00:53:23.221Z,48.50
2019-04-30T00:55:50.578Z,47.00
2019-04-30T00:58:24.730Z,47.50
2019-04-30T01:00:48.566Z,46.30
2019-04-30T01:03:17.500Z,45.25
2019-04-30T01:05:47.909Z,46.70
2019-04-30T01:08:15.419Z,46.83
2019-04-30T01:10:42.844Z,45.08
2019-04-30T01:13:11.910Z,43.83
2019-04-30T01:15:39.150Z,42.93
2019-04-30T01:18:06.440Z,40.83
2019-04-30T01:20:33.802Z,45.45
2019-04-30T01:23:03.059Z,44.73
2019-04-30T01:25:30.300Z,44.20
2019-04-30T01:27:58.584Z,43.23
2019-04-30T01:30:25.924Z,41.75
2019-04-30T01:32:56.836Z,42.50
2019-04-30T01:35:23.964Z,47.65
2019-04-30T01:37:51.274Z,48.33
2019-04-30T01:40:18.955Z,48.45
2019-04-30T01:42:48.617Z,48.73
2019-04-30T01:45:15.598Z,46.13
2019-04-30T01:47:42.912Z,47.90
2019-04-30T01:50:10.452Z,47.20
2019-04-30T01:52:52.247Z,44.30
2019-04-30T01:55:21.204Z,46.10
2019-04-30T01:57:50.138Z,47.00
2019-04-30T02:00:22.072Z,46.25
2019-04-30T02:02:49.600Z,46.90
2019-04-30T02:05:18.769Z,47.43
2019-04-30T02:07:46.176Z,46.63
2019-04-30T02:10:13.622Z,45.08
2019-04-30T02:12:40.949Z,47.70
2019-04-30T02:15:09.489Z,48.05
2019-04-30T02:17:38.738Z,48.70
2019-04-30T02:20:08.429Z,50.35
2019-04-30T02:22:35.715Z,49.27
2019-04-30T02:25:03.290Z,46.95
2019-04-30T02:27:31.714Z,44.93
2019-04-30T02:29:59.396Z,45.73
2019-04-30T02:32:30.522Z,47.40
2019-04-30T02:35:04.676Z,47.88
2019-04-30T02:37:36.577Z,44.67
2019-04-30T02:40:05.099Z,48.35
2019-04-30T02:42:32.464Z,44.13
2019-04-30T02:45:03.937Z,44.35
2019-04-30T02:47:31.128Z,45.05
2019-04-30T02:50:13.685Z,47.85
2019-04-30T02:52:29.787Z,43.45
2019-04-30T02:54:59.406Z,43.52
2019-04-30T02:57:26.795Z,43.60
2019-04-30T03:00:10.611Z,45.20
2019-04-30T03:02:39.395Z,43.52
2019-04-30T03:05:10.152Z,43.30
2019-04-30T03:07:36.013Z,43.60
2019-04-30T03:10:04.071Z,44.30
2019-04-30T03:12:33.788Z,45.03
2019-04-30T03:15:00.575Z,47.10
2019-04-30T03:17:32.299Z,44.48
2019-04-30T03:20:04.146Z,44.00
2019-04-30T03:22:31.622Z,42.10
2019-04-30T03:24:59.862Z,43.60
2019-04-30T03:27:29.978Z,44.55
2019-04-30T03:29:56.284Z,44.80
2019-04-30T03:32:23.572Z,41.77
2019-04-30T03:34:52.022Z,41.37
2019-04-30T03:37:19.881Z,42.35
2019-04-30T03:39:49.978Z,39.18
2019-04-30T03:42:19.693Z,40.67
2019-04-30T03:44:46.327Z,42.83
2019-04-30T03:47:13.639Z,41.73
2019-04-30T03:49:40.960Z,43.45
2019-04-30T03:52:12.516Z,43.42
2019-04-30T03:54:37.266Z,43.15
2019-04-30T03:57:04.635Z,43.28
2019-04-30T03:59:31.915Z,40.20
2019-04-30T04:02:20.793Z,41.83
2019-04-30T04:04:55.432Z,42.00
2019-04-30T04:07:39.690Z,39.18
2019-04-30T04:10:10.060Z,40.43
2019-04-30T04:12:39.526Z,40.28
2019-04-30T04:15:06.623Z,39.92
2019-04-30T04:17:33.928Z,39.70
2019-04-30T04:20:01.221Z,44.75
2019-04-30T04:22:30.561Z,41.75
2019-04-30T04:25:00.132Z,42.40
2019-04-30T04:27:29.797Z,41.92
2019-04-30T04:29:55.625Z,39.92
2019-04-30T04:32:24.415Z,40.73
2019-04-30T04:34:52.010Z,39.58
2019-04-30T04:37:20.364Z,42.73
2019-04-30T04:39:50.293Z,42.45
2019-04-30T04:42:33.121Z,38.38
2019-04-30T04:45:04.381Z,40.95
2019-04-30T04:47:31.236Z,43.20
2019-04-30T04:50:00.761Z,40.45
2019-04-30T04:52:31.552Z,42.98
2019-04-30T04:55:02.094Z,41.10
2019-04-30T05:00:19.421Z,41.75
2019-04-30T05:03:09.528Z,38.63
2019-04-30T05:05:42.746Z,42.75
2019-04-30T05:08:18.556Z,40.25
2019-04-30T05:10:51.065Z,42.73
2019-04-30T05:13:22.527Z,40.70
2019-04-30T05:16:01.275Z,40.43
2019-04-30T05:18:29.262Z,41.25
2019-04-30T05:21:05.652Z,39.25
2019-04-30T05:26:30.884Z,41.45
2019-04-30T05:32:23.078Z,42.35
2019-04-30T05:50:39.148Z,39.27
2019-04-30T05:53:06.710Z,38.67
2019-04-30T05:55:34.134Z,39.90
2019-04-30T05:58:01.657Z,42.35
2019-04-30T06:00:30.576Z,42.67
2019-04-30T06:02:59.637Z,43.15
2019-04-30T06:05:28.599Z,43.55
2019-04-30T06:07:55.968Z,41.73
2019-04-30T06:10:36.952Z,42.15
2019-04-30T06:13:09.072Z,42.78
2019-04-30T06:15:39.561Z,46.23
2019-04-30T06:18:13.419Z,44.18
2019-04-30T06:20:36.223Z,44.30
2019-04-30T06:23:03.692Z,44.75
2019-04-30T06:25:45.838Z,43.80
2019-04-30T06:28:01.413Z,44.40
2019-04-30T06:30:29.862Z,43.78
2019-04-30T06:32:59.217Z,44.63
2019-04-30T06:35:26.372Z,41.10
2019-04-30T06:37:53.738Z,43.73
2019-04-30T06:40:21.218Z,45.10
2019-04-30T06:42:49.556Z,43.60
2019-04-30T06:45:19.144Z,44.05
2019-04-30T06:47:48.771Z,44.70
2019-04-30T06:50:15.872Z,41.63
2019-04-30T06:52:54.172Z,41.65
2019-04-30T06:55:12.440Z,43.40
2019-04-30T06:57:39.730Z,43.80
2019-04-30T07:00:09.663Z,43.07
2019-04-30T07:02:36.498Z,45.17
2019-04-30T07:05:04.684Z,44.97
2019-04-30T07:07:38.747Z,47.70
2019-04-30T07:10:10.211Z,48.00
2019-04-30T07:12:39.358Z,47.60
2019-04-30T07:15:08.605Z,47.47
2019-04-30T07:17:35.810Z,47.57
2019-04-30T07:20:06.181Z,48.27
2019-04-30T07:22:39.669Z,47.83
2019-04-30T07:25:02.747Z,48.07
2019-04-30T07:27:32.285Z,45.90
2019-04-30T07:29:59.566Z,45.73
2019-04-30T07:32:28.809Z,45.03
2019-04-30T07:34:56.029Z,45.57
2019-04-30T07:37:24.721Z,44.27
2019-04-30T07:39:55.213Z,46.60
2019-04-30T07:42:22.509Z,51.80
2019-04-30T07:44:50.289Z,50.77
2019-04-30T07:47:19.529Z,47.83
2019-04-30T07:49:52.893Z,48.07
2019-04-30T07:52:16.735Z,46.80
2019-04-30T07:54:44.583Z,48.73
2019-04-30T07:57:11.901Z,48.13
2019-04-30T07:59:39.752Z,45.53
2019-04-30T08:04:52.788Z,45.53
2019-04-30T08:07:22.861Z,46.07
2019-04-30T08:09:35.580Z,46.63
2019-04-30T08:09:50.303Z,48.40
2019-04-30T08:12:26.296Z,49.53
2019-04-30T08:14:46.710Z,47.60
2019-04-30T08:17:14.096Z,49.03
2019-04-30T08:19:41.467Z,49.07
2019-04-30T08:22:09.593Z,47.60
2019-04-30T08:24:38.978Z,48.23
2019-04-30T08:27:06.193Z,47.83
2019-04-30T08:29:33.577Z,48.37
2019-04-30T08:32:00.948Z,49.00
2019-04-30T08:34:29.278Z,48.80
2019-04-30T08:36:59.327Z,49.87
2019-04-30T08:39:26.833Z,55.00
2019-04-30T08:41:54.304Z,55.60
2019-04-30T08:44:21.977Z,56.07
2019-04-30T08:46:49.532Z,57.87
2019-04-30T08:49:18.986Z,52.80
2019-04-30T08:51:46.099Z,52.00
2019-04-30T08:54:13.531Z,45.57
2019-04-30T08:56:42.387Z,47.83
2019-04-30T08:59:11.205Z,50.30
2019-04-30T09:01:39.059Z,51.10
2019-04-30T09:04:07.704Z,50.77
2019-04-30T09:06:35.181Z,54.33
2019-04-30T09:09:04.226Z,52.27
2019-04-30T09:11:42.898Z,52.53
2019-04-30T09:14:00.627Z,56.67
2019-04-30T09:16:29.497Z,55.40
2019-04-30T09:18:56.987Z,47.63
2019-04-30T09:21:24.350Z,48.77
2019-04-30T09:23:52.963Z,49.90
2019-04-30T09:26:20.354Z,52.23
2019-04-30T09:28:49.481Z,50.97
2019-04-30T09:31:16.924Z,49.00
2019-04-30T09:33:44.209Z,54.77
2019-04-30T09:36:11.514Z,50.77
2019-04-30T09:38:39.012Z,51.57
2019-04-30T09:41:06.353Z,48.53
2019-04-30T09:43:33.649Z,46.93
2019-04-30T09:46:01.056Z,49.07
2019-04-30T09:48:30.315Z,47.93
2019-04-30T09:50:58.275Z,50.33
2019-04-30T09:53:26.548Z,51.50
2019-04-30T09:55:53.924Z,49.07
2019-04-30T09:58:21.376Z,49.67
2019-04-30T10:00:50.353Z,47.73
2019-04-30T10:03:20.094Z,47.33
2019-04-30T10:05:48.952Z,48.70
2019-04-30T10:08:16.002Z,48.43
2019-04-30T10:10:44.964Z,47.47
2019-04-30T10:13:12.363Z,48.00
2019-04-30T10:15:59.240Z,48.10
2019-04-30T10:18:26.630Z,46.10
2019-04-30T10:20:54.076Z,44.00
2019-04-30T10:23:21.462Z,45.60
2019-04-30T10:25:49.312Z,43.90
2019-04-30T10:28:16.704Z,41.90
2019-04-30T10:30:44.001Z,43.93
2019-04-30T10:33:11.626Z,42.03
2019-04-30T10:35:38.983Z,44.00
2019-04-30T10:38:06.452Z,36.87
2019-04-30T10:40:33.760Z,38.77
2019-04-30T10:43:01.177Z,34.50
2019-04-30T10:45:28.877Z,41.27
2019-04-30T10:47:56.334Z,38.97
2019-04-30T10:50:24.390Z,38.37
2019-04-30T10:52:51.689Z,38.03
2019-04-30T10:55:18.992Z,30.10
2019-04-30T10:57:46.303Z,37.90
2019-04-30T11:00:14.128Z,29.37
2019-04-30T11:02:41.494Z,26.80
2019-04-30T11:05:08.854Z,26.03
2019-04-30T11:07:36.232Z,29.30
2019-04-30T11:10:05.118Z,26.07
2019-04-30T11:12:32.416Z,30.07
2019-04-30T11:14:59.824Z,20.30
2019-04-30T11:17:29.281Z,20.07
2019-04-30T11:19:56.419Z,21.03
2019-04-30T11:22:24.052Z,21.97
2019-04-30T11:24:58.861Z,18.83
2019-04-30T11:27:21.646Z,7.50
2019-04-30T11:29:49.703Z,8.17
2019-04-30T11:32:19.012Z,3.93
2019-04-30T11:34:46.534Z,1.60
2019-04-30T11:37:15.923Z,1.77
2019-04-30T11:39:43.023Z,1.30
2019-04-30T11:42:10.521Z,1.40
2019-04-30T11:44:38.691Z,1.50
2019-04-30T11:47:09.511Z,1.20
2019-04-30T11:49:36.970Z,1.20
2019-04-30T11:52:04.524Z,1.57
2019-04-30T11:54:31.983Z,1.33
2019-04-30T11:56:59.845Z,1.60
2019-04-30T11:59:27.259Z,2.13
2019-04-30T12:01:57.134Z,1.30
2019-04-30T12:04:24.449Z,2.47
2019-04-30T12:06:52.924Z,2.23
2019-04-30T12:09:38.582Z,2.90
2019-04-30T12:12:06.102Z,1.20
2019-04-30T12:14:33.567Z,1.20
2019-04-30T12:17:00.889Z,3.43
2019-04-30T12:19:28.643Z,1.80
2019-04-30T12:21:56.141Z,2.23
2019-04-30T12:24:23.526Z,1.40
2019-04-30T12:26:51.001Z,1.17
2019-04-30T12:29:19.108Z,1.90
2019-04-30T12:31:46.550Z,1.20
2019-04-30T12:34:14.163Z,1.50
2019-04-30T12:36:41.540Z,1.40
2019-04-30T12:39:08.861Z,1.70
2019-04-30T12:41:36.271Z,1.20
2019-04-30T12:44:03.549Z,1.70
2019-04-30T12:46:30.899Z,3.43
2019-04-30T12:49:02.900Z,1.20
2019-04-30T12:51:31.885Z,1.77
2019-04-30T12:54:00.908Z,1.13
2019-04-30T12:56:29.969Z,1.20
2019-04-30T12:58:57.289Z,1.20
2019-04-30T13:01:25.083Z,1.43
2019-04-30T13:03:58.614Z,2.70
2019-04-30T13:06:21.990Z,3.67
2019-04-30T13:08:52.181Z,4.50
2019-04-30T13:11:21.058Z,1.20
2019-04-30T13:13:50.032Z,1.20
2019-04-30T13:16:16.863Z,1.20
2019-04-30T13:18:44.134Z,1.30
2019-04-30T13:21:11.973Z,2.70
2019-04-30T13:23:39.380Z,2.43
2019-04-30T13:26:08.805Z,1.30
2019-04-30T13:28:53.887Z,2.67
2019-04-30T13:31:21.301Z,1.30
2019-04-30T13:33:51.458Z,1.17
2019-04-30T13:36:19.860Z,1.40
2019-04-30T13:38:55.050Z,1.40
2019-04-30T13:41:38.680Z,3.17
2019-04-30T13:44:09.694Z,1.50
2019-04-30T13:46:37.226Z,1.40
2019-04-30T13:49:04.567Z,1.20
2019-04-30T13:51:31.915Z,2.40
2019-04-30T13:53:59.339Z,1.20
2019-04-30T13:56:28.546Z,1.20
2019-04-30T13:58:55.725Z,1.40
2019-04-30T14:01:23.110Z,4.33
2019-04-30T14:04:06.585Z,1.30
2019-04-30T14:06:50.335Z,1.40
2019-04-30T14:09:22.162Z,3.33
2019-04-30T14:11:49.643Z,1.20
2019-04-30T14:14:19.762Z,1.30
2019-04-30T14:16:46.270Z,1.20
2019-04-30T14:19:13.749Z,1.83
2019-04-30T14:21:45.483Z,1.93
2019-04-30T14:24:12.894Z,1.20
2019-04-30T14:26:40.391Z,1.20
2019-04-30T14:29:07.829Z,1.73
2019-04-30T14:31:35.987Z,1.30
2019-04-30T14:34:03.447Z,1.20
2019-04-30T14:36:31.655Z,1.47
2019-04-30T14:39:14.484Z,5.30
2019-04-30T14:45:19.269Z,1.67
2019-04-30T14:48:02.411Z,1.20
2019-04-30T15:03:12.863Z,1.20
2019-04-30T15:05:48.479Z,2.63
2019-04-30T15:08:11.848Z,1.10
2019-04-30T15:10:39.494Z,1.33
2019-04-30T15:13:09.574Z,1.27
2019-04-30T15:15:36.222Z,1.67
2019-04-30T15:18:05.346Z,1.20
2019-04-30T15:20:34.338Z,1.40
2019-04-30T15:23:09.320Z,1.20
2019-04-30T15:25:38.801Z,1.20
2019-04-30T15:28:06.244Z,2.50
2019-04-30T15:30:33.522Z,1.20
2019-04-30T15:33:02.491Z,1.17
2019-04-30T15:35:29.838Z,1.20
2019-04-30T15:37:59.404Z,1.17
2019-04-30T15:40:28.776Z,2.33
2019-04-30T15:42:57.533Z,1.20
2019-04-30T15:45:26.546Z,1.20
2019-04-30T15:47:53.936Z,1.10
2019-04-30T15:50:22.126Z,1.50
2019-04-30T15:52:49.482Z,1.97
2019-04-30T15:55:17.321Z,1.27
2019-04-30T15:57:53.377Z,1.20
2019-04-30T16:00:21.208Z,1.30
2019-04-30T16:02:56.538Z,1.80
2019-04-30T16:05:23.395Z,1.57
2019-04-30T16:07:52.414Z,1.60
2019-04-30T16:10:28.610Z,1.20
2019-04-30T16:13:09.707Z,1.20
2019-04-30T16:15:38.554Z,1.70
2019-04-30T16:18:06.198Z,2.33
2019-04-30T16:20:33.500Z,1.97
2019-04-30T16:23:02.741Z,1.90
2019-04-30T16:25:39.055Z,1.10
2019-04-30T16:31:10.822Z,1.20
2019-04-30T16:34:05.984Z,1.20
2019-04-30T16:36:22.280Z,1.23
2019-04-30T16:38:58.756Z,1.20
2019-04-30T16:41:31.462Z,1.20
2019-04-30T17:59:03.386Z,2.37
2019-04-30T18:01:31.981Z,1.40
2019-04-30T18:03:59.595Z,1.15
2019-04-30T18:06:27.088Z,1.82
2019-04-30T18:08:54.545Z,1.25
2019-04-30T18:11:22.083Z,1.12
2019-04-30T18:13:59.426Z,2.30
2019-04-30T18:16:28.653Z,4.75
2019-04-30T18:19:15.456Z,1.00
2019-04-30T18:21:48.597Z,1.20
2019-04-30T18:24:26.667Z,1.30
2019-04-30T18:26:56.179Z,2.75
2019-04-30T18:29:23.679Z,1.67
2019-04-30T18:31:52.583Z,1.62
2019-04-30T18:34:20.210Z,1.67
2019-04-30T18:36:48.675Z,1.40
2019-04-30T18:39:18.896Z,1.20
2019-04-30T18:41:46.389Z,1.30
2019-04-30T18:44:13.964Z,1.20
2019-04-30T18:46:50.163Z,1.20
2019-04-30T18:49:14.757Z,1.10
2019-04-30T18:51:42.801Z,1.50
2019-04-30T18:54:13.117Z,1.20
2019-04-30T18:56:40.628Z,1.20
2019-04-30T18:59:08.924Z,1.10
2019-04-30T19:01:36.379Z,1.72
2019-04-30T19:04:03.791Z,1.20
2019-04-30T19:06:31.196Z,1.25
2019-04-30T19:09:03.219Z,1.15
2019-04-30T19:11:32.147Z,2.40
2019-04-30T19:14:01.191Z,1.00
2019-04-30T19:16:46.338Z,1.47
2019-04-30T19:19:20.992Z,1.20
2019-04-30T19:21:49.938Z,1.20
2019-04-30T19:24:19.585Z,1.45
2019-04-30T19:26:48.594Z,1.10
2019-04-30T19:29:16.545Z,1.20
2019-04-30T19:31:43.856Z,1.42
2019-04-30T19:34:11.173Z,1.20
2019-04-30T19:36:40.524Z,1.20
2019-04-30T19:39:09.293Z,1.17
2019-04-30T19:41:38.638Z,1.10
2019-04-30T19:44:06.418Z,1.20
2019-04-30T19:46:33.929Z,1.20
2019-04-30T19:49:02.030Z,1.20
2019-04-30T19:51:29.704Z,1.10
2019-04-30T19:53:57.104Z,1.15
2019-04-30T19:56:24.392Z,1.30
2019-04-30T19:59:01.647Z,1.10
2019-04-30T20:01:20.696Z,1.20
2019-04-30T20:03:48.117Z,1.10
2019-04-30T20:06:15.454Z,1.20
2019-04-30T20:08:42.808Z,1.10
2019-04-30T20:11:10.184Z,1.90
2019-04-30T20:13:37.566Z,1.15
2019-04-30T20:16:06.047Z,1.10
2019-04-30T20:18:33.442Z,1.20
2019-04-30T20:21:03.313Z,1.60
2019-04-30T20:23:30.659Z,2.37
2019-04-30T20:25:58.924Z,1.15
2019-04-30T20:28:38.467Z,1.17
2019-04-30T20:30:55.589Z,1.82
2019-04-30T20:33:23.061Z,1.65
2019-04-30T20:35:50.760Z,1.10
2019-04-30T20:38:28.422Z,1.10
2019-04-30T20:41:00.122Z,1.62
2019-04-30T20:43:25.087Z,1.20
2019-04-30T20:45:52.568Z,1.62
2019-04-30T20:48:19.978Z,1.10
2019-04-30T20:50:47.438Z,1.17
2019-04-30T20:53:14.763Z,1.20
2019-04-30T20:55:42.192Z,2.50
2019-04-30T20:58:09.663Z,1.20
2019-04-30T21:00:37.088Z,1.20
2019-04-30T21:03:04.529Z,1.20
2019-04-30T21:05:33.185Z,1.10
2019-04-30T21:08:00.673Z,1.10
2019-04-30T21:10:29.658Z,1.10
2019-04-30T21:12:58.858Z,1.98
2019-04-30T21:15:26.143Z,1.10
2019-04-30T21:17:58.643Z,1.20
2019-04-30T21:20:25.652Z,2.05
2019-04-30T21:22:52.951Z,1.82
2019-04-30T21:25:20.818Z,1.30
2019-04-30T21:27:50.019Z,1.30
2019-04-30T21:30:17.252Z,1.12
2019-04-30T21:33:01.272Z,1.20
2019-04-30T21:35:45.359Z,1.20
2019-04-30T21:38:12.754Z,1.20
2019-04-30T21:40:40.148Z,1.10
2019-04-30T21:43:07.524Z,1.30
2019-04-30T21:45:34.879Z,3.85
2019-04-30T21:48:02.171Z,1.60
2019-04-30T21:50:29.740Z,1.10
2019-04-30T21:52:57.110Z,1.30
2019-04-30T21:55:24.396Z,1.40
2019-04-30T21:57:51.673Z,1.17
2019-04-30T22:00:36.829Z,1.40
2019-04-30T22:03:05.028Z,1.02
2019-04-30T22:05:32.358Z,1.10
2019-04-30T22:07:59.720Z,2.20
2019-04-30T22:10:27.040Z,1.15
2019-04-30T22:12:54.418Z,1.15
2019-04-30T22:15:21.790Z,1.10
2019-04-30T22:17:49.176Z,1.75
2019-04-30T22:20:16.470Z,1.20
2019-04-30T22:22:43.793Z,1.32
2019-04-30T22:25:11.244Z,1.85
2019-04-30T22:27:38.541Z,1.30
2019-04-30T22:30:06.592Z,1.15
2019-04-30T22:32:34.008Z,1.10
2019-04-30T22:35:21.040Z,1.20
2019-04-30T22:37:50.642Z,1.20
2019-04-30T22:40:19.551Z,1.10
2019-04-30T22:42:49.527Z,1.40
2019-04-30T22:45:18.961Z,1.65
2019-04-30T22:47:50.391Z,1.20
2019-04-30T22:50:18.013Z,2.08
2019-04-30T22:52:45.621Z,3.05
